Latest Weather Observations for Sydney Olympic Park

IDN60801

Issued at 4:05 pm EDT Saturday 31 January 2015 (issued every 30 minutes, with the page automatically refreshed every 10 minutes)

About weather observations | Map of weather stations | Latest weather observations for NSW | Other Formats
Station Details ID: 066212 Name: SYDNEY OLYMPIC PARK AWS (ARCHERY CENTRE) Lat: -33.83 Lon: 151.07 Height: 4.0 m
Data from the previous 72 hours. | See also: Recent months at Sydney Olympic Park
Date/Time
EDT
Temp
°C
App
Temp
°C
Dew
Point
Rel
Hum
%
Delta-T
°C
Wind Press
QNH
hPa
Press
MSL
hPa
Rain
since 9 am
mm
Dir
 
Spd
km/h
Gust
km/h
Spd
kts
Gust
kts
31/04:00pm 25.4 24.1 13.6 48 6.9 ESE 13 20 7 11 - - 0.0
31/03:30pm 24.9 22.5 12.5 46 7.1 E 17 24 9 13 - - 0.0
31/03:00pm 24.9 22.6 13.1 48 6.9 E 17 26 9 14 - - 0.0
31/02:30pm 24.7 22.1 13.3 49 6.6 E 19 26 10 14 - - 0.0
31/02:00pm 25.1 22.7 12.7 46 7.2 ESE 17 20 9 11 - - 0.0
31/01:30pm 26.5 25.6 13.6 45 7.6 E 11 17 6 9 - - 0.0
31/01:00pm 26.6 26.2 12.3 41 8.3 WNW 6 13 3 7 - - 0.0
31/12:30pm 26.5 26.3 12.9 43 7.9 WSW 6 11 3 6 - - 0.0
31/12:00pm 25.7 24.9 11.8 42 7.9 WSW 7 19 4 10 - - 0.0
31/11:30am 24.5 23.7 11.1 43 7.5 SE 6 11 3 6 - - 0.0
31/11:00am 24.5 24.4 12.1 46 7.1 ESE 4 11 2 6 - - 0.0
31/10:30am 23.3 22.8 10.7 45 7.0 ESE 4 11 2 6 - - 0.0
31/10:00am 23.0 22.7 11.4 48 6.5 NW 4 7 2 4 - - 0.0
31/09:30am 22.5 22.7 13.0 55 5.4 SSW 4 9 2 5 - - 0.0
31/09:00am 21.1 21.1 13.5 62 4.4 WSW 6 9 3 5 - - 0.0
31/08:30am 19.9 20.0 14.0 69 3.4 WSW 6 7 3 4 - - 0.0
31/08:00am 18.5 19.2 15.7 84 1.7 WNW 6 7 3 4 - - 0.0
31/07:30am 16.9 17.6 16.1 95 0.5 NW 7 11 4 6 - - 0.0
31/07:00am 15.9 17.7 15.6 98 0.2 CALM 0 0 0 0 - - 0.0
31/06:30am 15.6 17.3 15.3 98 0.2 CALM 0 0 0 0 - - 0.0
31/06:00am 15.3 16.9 14.8 97 0.3 CALM 0 0 0 0 - - 0.0
31/05:30am 15.5 17.2 15.2 98 0.2 CALM 0 0 0 0 - - 0.0
31/05:00am 15.6 17.3 15.1 97 0.3 CALM 0 0 0 0 - - 0.0
31/04:30am 15.7 17.4 15.2 97 0.3 CALM 0 0 0 0 - - 0.0
31/04:00am 15.3 16.8 14.7 96 0.3 CALM 0 0 0 0 - - 0.0
31/03:30am 15.4 16.9 14.6 95 0.5 CALM 0 0 0 0 - - 0.0
31/03:00am 15.9 17.6 15.1 95 0.5 CALM 0 0 0 0 - - 0.0
31/02:30am 16.2 17.8 14.9 92 0.7 CALM 0 0 0 0 - - 0.0
31/02:00am 16.9 18.4 15.6 92 0.8 SSE 2 7 1 4 - - 0.0
31/01:30am 17.4 19.3 15.7 90 1.0 CALM 0 6 0 3 - - 0.0
31/01:00am 18.5 20.5 16.1 86 1.4 CALM 0 0 0 0 - - 0.0
31/12:30am 19.2 21.2 15.9 81 2.0 CALM 0 0 0 0 - - 0.0
31/12:00am 19.6 20.3 15.5 77 2.4 SSE 6 6 3 3 - - 0.0
 
Date/Time
EDT
Temp
°C
App
Temp
°C
Dew
Point
Rel
Hum
%
Delta-T
°C
Wind Press
QNH
hPa
Press
MSL
hPa
Rain
since 9 am
mm
Dir
 
Spd
km/h
Gust
km/h
Spd
kts
Gust
kts
30/11:30pm 20.1 20.8 15.5 75 2.7 SSE 6 11 3 6 - - 0.0
30/11:00pm 20.4 20.5 15.4 73 3.0 SSE 9 13 5 7 - - 0.0
30/10:30pm 20.5 20.5 15.3 72 3.1 SSE 9 13 5 7 - - 0.0
30/10:00pm 20.5 20.5 15.3 72 3.1 SE 9 15 5 8 - - 0.0
30/09:30pm 20.1 20.4 15.1 73 2.9 SE 7 11 4 6 - - 0.0
30/09:00pm 20.6 20.6 15.2 71 3.2 SE 9 15 5 8 - - 0.0
30/08:30pm 20.9 20.4 14.8 68 3.6 SSE 11 15 6 8 - - 0.0
30/08:00pm 21.2 20.8 15.1 68 3.6 SE 11 19 6 10 - - 0.0
30/07:30pm 22.0 20.6 14.4 62 4.5 SE 15 20 8 11 - - 0.0
30/07:00pm 22.5 20.7 13.3 56 5.3 SE 15 20 8 11 - - 0.0
30/06:30pm 23.6 21.9 12.6 50 6.3 SSE 13 24 7 13 - - 0.0
30/06:00pm 23.3 21.3 12.6 51 6.1 SSE 15 20 8 11 - - 0.0
30/05:30pm 24.4 22.8 11.4 44 7.3 SE 11 17 6 9 - - 0.0
30/05:00pm 26.6 23.1 5.5 26 10.8 SW 13 28 7 15 - - 0.0
30/04:30pm 26.0 22.5 5.6 27 10.5 WSW 13 26 7 14 - - 0.0
30/04:00pm 27.1 22.9 7.5 29 10.5 SW 19 30 10 16 - - 0.0
30/03:30pm 26.7 22.7 6.7 28 10.5 SW 17 30 9 16 - - 0.0
30/03:00pm 26.6 23.6 7.6 30 10.1 WSW 13 22 7 12 - - 0.0
30/02:30pm 25.9 22.3 8.4 33 9.4 SW 17 33 9 18 - - 0.0
30/02:00pm 25.4 21.6 7.5 32 9.5 WSW 17 30 9 16 - - 0.0
30/01:30pm 25.0 21.2 8.9 36 8.7 SSW 19 30 10 16 - - 0.0
30/01:00pm 24.4 20.6 9.2 38 8.2 WSW 19 39 10 21 - - 0.0
30/12:30pm 24.4 21.8 10.7 42 7.6 W 15 28 8 15 - - 0.0
30/12:00pm 23.2 19.9 9.6 42 7.4 WSW 17 24 9 13 - - 0.0
30/11:30am 23.1 20.5 9.5 42 7.4 SW 13 22 7 12 - - 0.0
30/11:00am 21.8 19.5 9.0 44 6.8 WSW 11 20 6 11 - - 0.0
30/10:30am 21.1 18.8 9.0 46 6.4 WSW 11 24 6 13 - - 0.0
30/10:00am 20.7 17.8 9.6 49 5.9 SW 15 24 8 13 - - 0.0
30/09:30am 19.8 17.1 8.8 49 5.8 W 13 20 7 11 - - 0.0
30/09:00am 19.5 17.8 11.3 59 4.5 W 11 19 6 10 - - 0.0
30/08:30am 18.3 15.5 8.6 53 5.0 W 13 22 7 12 - - 0.0
30/08:00am 17.3 15.4 10.4 64 3.7 WNW 11 17 6 9 - - 0.0
30/07:30am 15.8 14.6 11.6 76 2.3 WNW 9 15 5 8 - - 0.0
30/07:00am 13.9 13.4 12.8 93 0.6 WNW 7 11 4 6 - - 0.0
30/06:30am 12.8 12.3 12.2 96 0.3 WNW 6 9 3 5 - - 0.0
30/06:00am 12.7 12.2 11.9 95 0.4 NW 6 9 3 5 - - 0.0
30/05:30am 12.7 13.0 12.1 96 0.3 NW 2 6 1 3 - - 0.0
30/05:00am 13.0 13.8 12.5 97 0.3 CALM 0 0 0 0 - - 0.0
30/04:30am 13.0 13.7 12.2 95 0.4 CALM 0 0 0 0 - - 0.0
30/04:00am 12.8 13.3 11.7 93 0.6 CALM 0 0 0 0 - - 0.0
30/03:30am 13.1 13.7 11.8 92 0.7 CALM 0 0 0 0 - - 0.0
30/03:00am 13.5 13.8 11.0 85 1.3 CALM 0 0 0 0 - - 0.0
30/02:30am 14.4 14.8 11.2 81 1.7 CALM 0 0 0 0 - - 0.0
30/02:00am 15.1 14.4 11.5 79 1.9 W 6 9 3 5 - - 0.0
30/01:30am 14.8 15.0 11.8 82 1.6 WSW 2 7 1 4 - - 0.0
30/01:00am 14.8 15.0 11.9 83 1.6 WNW 2 7 1 4 - - 0.0
30/12:30am 15.1 14.6 11.9 81 1.7 WNW 6 9 3 5 - - 0.0
30/12:00am 16.0 16.6 11.8 76 2.3 CALM 0 6 0 3 - - 0.0
 
Date/Time
EDT
Temp
°C
App
Temp
°C
Dew
Point
Rel
Hum
%
Delta-T
°C
Wind Press
QNH
hPa
Press
MSL
hPa
Rain
since 9 am
mm
Dir
 
Spd
km/h
Gust
km/h
Spd
kts
Gust
kts
29/11:30pm 17.0 16.1 11.5 70 3.0 WSW 7 13 4 7 - - 0.0
29/11:00pm 17.6 16.6 10.9 65 3.6 SW 7 11 4 6 - - 0.0
29/10:30pm 18.3 16.8 10.7 61 4.1 SSW 9 17 5 9 - - 0.0
29/10:00pm 18.7 16.9 11.0 61 4.2 SSW 11 20 6 11 - - 0.0
29/09:30pm 18.9 16.8 11.2 61 4.2 SSW 13 26 7 14 - - 0.0
29/09:00pm 19.2 16.5 11.7 62 4.1 S 17 30 9 16 - - 0.0
29/08:30pm 19.4 16.9 12.2 63 4.0 S 17 32 9 17 - - 0.0
29/08:00pm 19.7 17.2 12.2 62 4.2 S 17 26 9 14 - - 0.0
29/07:30pm 19.9 15.5 11.7 59 4.5 S 26 43 14 23 - - 0.0
29/07:00pm 20.7 17.0 11.6 56 5.0 SSE 22 37 12 20 - - 0.0
29/06:30pm 21.3 17.0 10.8 51 5.8 SSE 24 37 13 20 - - 0.0
29/06:00pm 21.8 17.4 10.3 48 6.3 S 24 37 13 20 - - 0.0
29/05:30pm 22.3 18.0 12.0 52 5.8 SSE 26 41 14 22 - - 0.0
29/05:00pm 22.6 18.5 11.4 49 6.2 SSE 24 33 13 18 - - 0.0
29/04:30pm 23.0 19.3 11.4 48 6.5 SSE 22 33 12 18 - - 0.0
29/04:00pm 22.8 19.3 10.9 47 6.6 SSE 20 33 11 18 - - 0.0
29/03:30pm 22.4 19.4 11.8 51 6.0 SSE 19 33 10 18 - - 0.0
29/03:00pm 21.8 19.0 11.2 51 5.9 S 17 28 9 15 - - 0.0
29/02:30pm 23.3 20.7 12.0 49 6.4 S 17 28 9 15 - - 0.0
29/02:00pm 22.3 18.8 8.8 42 7.2 SSW 17 30 9 16 - - 0.0
29/01:30pm 22.3 19.4 9.5 44 6.9 SSW 15 28 8 15 - - 0.0
29/01:00pm 23.7 21.5 10.7 44 7.2 WSW 13 20 7 11 - - 0.0
29/12:30pm 21.7 18.9 8.6 43 6.9 S 13 26 7 14 - - 0.0
29/12:00pm 22.4 19.1 9.6 44 6.9 SSW 17 28 9 15 - - 0.0
29/11:30am 21.8 19.0 10.0 47 6.4 SW 15 30 8 16 - - 0.0
29/11:00am 21.4 18.5 9.6 47 6.3 SW 15 30 8 16 - - 0.0
29/10:30am 21.0 17.7 9.6 48 6.1 SW 17 30 9 16 - - 0.0
29/10:00am 20.0 17.4 9.3 50 5.7 SW 13 24 7 13 - - 0.0
29/09:30am 19.5 17.1 10.2 55 5.0 WSW 13 30 7 16 - - 0.0
29/09:00am 19.2 17.6 11.5 61 4.2 WSW 11 20 6 11 - - 8.2
29/08:30am 17.9 15.6 10.3 61 4.1 SW 13 20 7 11 - - 8.2
29/08:00am 17.4 16.0 11.0 66 3.4 SW 9 17 5 9 - - 8.2
29/07:30am 16.5 15.3 11.6 73 2.7 WSW 9 15 5 8 - - 8.2
29/07:00am 15.6 14.5 12.0 79 2.0 WSW 9 15 5 8 - - 8.2
29/06:30am 14.4 14.0 12.3 87 1.1 WSW 6 13 3 7 - - 8.2
29/06:00am 14.2 14.3 12.6 90 0.9 WNW 4 9 2 5 - - 8.2
29/05:30am 14.8 14.4 12.5 86 1.3 W 6 7 3 4 - - 8.2
29/05:00am 15.0 14.5 12.7 86 1.3 W 7 11 4 6 - - 8.2
29/04:30am 15.1 14.6 12.8 86 1.3 W 7 11 4 6 - - 8.2
29/04:00am 15.4 14.9 12.7 84 1.5 WSW 7 13 4 7 - - 8.2
29/03:30am 15.7 14.9 12.8 83 1.6 WSW 9 15 5 8 - - 8.2
29/03:00am 15.7 14.9 12.8 83 1.6 WSW 9 15 5 8 - - 8.2
29/02:30am 15.5 15.3 13.0 85 1.4 W 6 9 3 5 - - 8.2
29/02:00am 15.7 15.6 13.2 85 1.4 W 6 13 3 7 - - 8.2
29/01:30am 16.0 15.6 12.9 82 1.7 WSW 7 11 4 6 - - 8.2
29/01:00am 16.2 15.4 12.9 81 1.8 WSW 9 13 5 7 - - 8.2
29/12:30am 16.3 16.0 13.2 82 1.7 WSW 7 11 4 6 - - 8.2
29/12:00am 16.4 15.7 13.3 82 1.7 WSW 9 13 5 7 - - 8.2
 
Date/Time
EDT
Temp
°C
App
Temp
°C
Dew
Point
Rel
Hum
%
Delta-T
°C
Wind Press
QNH
hPa
Press
MSL
hPa
Rain
since 9 am
mm
Dir
 
Spd
km/h
Gust
km/h
Spd
kts
Gust
kts
28/11:30pm 16.5 16.4 13.2 81 1.8 W 6 11 3 6 - - 8.2
28/11:00pm 16.9 16.6 13.4 80 2.0 WSW 7 13 4 7 - - 8.2
28/10:30pm 17.4 17.2 13.5 78 2.2 WSW 7 13 4 7 - - 8.2
28/10:00pm 17.5 17.3 13.6 78 2.2 SW 7 15 4 8 - - 8.2
28/09:30pm 18.0 17.9 13.9 77 2.3 WSW 7 13 4 7 - - 8.2
28/09:00pm 18.7 17.9 14.0 74 2.7 SW 11 19 6 10 - - 8.2
28/08:30pm 19.2 17.8 14.5 74 2.7 SSW 15 24 8 13 - - 8.2
28/08:00pm 19.1 18.1 14.6 75 2.6 SSW 13 20 7 11 - - 8.2
28/07:30pm 19.6 17.8 14.4 72 3.0 S 17 28 9 15 - - 8.2
28/07:00pm 20.5 18.8 14.6 69 3.4 S 17 28 9 15 - - 8.2
28/06:30pm 21.0 20.3 15.5 71 3.3 S 13 24 7 13 - - 8.2
28/06:00pm 20.4 19.8 15.6 74 2.9 S 13 24 7 13 - - 8.2
28/05:30pm 20.5 20.1 16.1 76 2.6 SSE 13 22 7 12 - - 8.2
28/05:00pm 19.9 18.5 15.5 76 2.6 SSW 17 32 9 17 - - 8.2
28/04:30pm 19.8 19.5 16.4 81 2.0 S 13 22 7 12 - - 8.2

Other Formats:

Comma delimited format used in spreadsheet applications
http://www.bom.gov.au/fwo/IDN60801/IDN60801.95765.axf

JavaScript Object Notation format (JSON) in row-major order
http://www.bom.gov.au/fwo/IDN60801/IDN60801.95765.json